Flight Track Log - Related Links

Times and Time Zones

All times are in EDT time to prevent confusion due to time zone crossing. See the CTL311 flight status page for this flight to view local times or setup timezone preferences in your user account.

Time Position Orientation Groundspeed Altitude Reporting Facility
EDT Latitude Longitude Course Direction KTS MPH feet Rate Location/Type
Tue 06:56:21 PM 42.2100 -84.4806 215° Southwest 159 183 2,700  Level Chicago Center
Tue 06:57:23 PM 42.1744 -84.5139 215° Southwest 156 180 3,300 532 Climbing Chicago Center
Tue 06:58:25 PM 42.1383 -84.5419 210° Southwest 153 176 3,800 532 Climbing Chicago Center
Tue 06:59:27 PM 42.1014 -84.5717 211° Southwest 153 176 4,400 480 Climbing Chicago Center
Tue 07:00:30 PM 42.0667 -84.6025 213° Southwest 152 175 4,800 432 Climbing Chicago Center
Tue 07:01:32 PM 42.0258 -84.6414 215° Southwest 150 173 5,300 387 Climbing Chicago Center
Tue 07:02:34 PM 41.9894 -84.6744 214° Southwest 155 178 5,600 290 Climbing Chicago Center
Tue 07:03:36 PM 41.9522 -84.7039 210° Southwest 155 178 5,900 194 Climbing Chicago Center
Tue 07:04:38 PM 41.9200 -84.7403 220° Southwest 152 175 6,000  Climbing Chicago Center
Tue 07:05:40 PM 41.8828 -84.7717 212° Southwest 157 181 5,900 -48 Descending Chicago Center
Tue 07:06:42 PM 41.8456 -84.8019 211° Southwest 157 181 5,900  Level Chicago Center
Tue 07:07:44 PM 41.7994 -84.8369 210° Southwest 158 182 5,900  Level Chicago Center
Tue 07:08:46 PM 41.7608 -84.8664 210° Southwest 159 183 5,900  Level Chicago Center
Tue 07:09:48 PM 41.7236 -84.8983 213° Southwest 159 183 5,900 48 Level Chicago Center
Tue 07:10:50 PM 41.6861 -84.9283 211° Southwest 157 181 6,000  Climbing Chicago Center
Tue 07:11:52 PM 41.6489 -84.9575 210° Southwest 155 178 5,900 -48 Descending Chicago Center
Tue 07:12:54 PM 41.6103 -84.9881 211° Southwest 159 183 5,900  Level Chicago Center
Tue 07:13:56 PM 41.5647 -85.0222 209° Southwest 157 181 5,900 48 Level Chicago Center
Tue 07:14:58 PM 41.5258 -85.0503 208° Southwest 157 181 6,000  Climbing Chicago Center
Tue 07:16:00 PM 41.4864 -85.0781 208° Southwest 158 182 5,900 -48 Descending Chicago Center
Tue 07:17:02 PM 41.4489 -85.1100 213° Southwest 159 183 5,900  Level Chicago Center
Tue 07:18:04 PM 41.4122 -85.1425 214° Southwest 158 182 5,900 48 Level Chicago Center
Tue 07:19:07 PM 41.3747 -85.1703 209° Southwest 157 181 6,000  Climbing Chicago Center
Tue 07:20:09 PM 41.3347 -85.1919 202° Southwest 155 178 5,900 -49 Descending Chicago Center
Tue 07:21:10 PM 41.2892 -85.2261 209° Southwest 156 180 5,900  Level Chicago Center
Tue 07:22:12 PM 41.2494 -85.2525 207° Southwest 158 182 5,900  Level Chicago Center
Tue 07:23:14 PM 41.2153 -85.2883 218° Southwest 157 181 5,900 -48 Level Chicago Center
Tue 07:24:16 PM 41.1761 -85.3169 209° Southwest 158 182 5,800  Descending Chicago Center
Tue 07:25:18 PM 41.1378 -85.3458 210° Southwest 159 183 5,900 97 Climbing Chicago Center
Tue 07:26:20 PM 41.0992 -85.3711 206° Southwest 157 181 6,000 48 Climbing Chicago Center
Tue 07:27:22 PM 41.0542 -85.4056 210° Southwest 156 180 6,000 -48 Level Chicago Center
Tue 07:28:24 PM 41.0153 -85.4344 209° Southwest 159 183 5,900 -49 Descending Chicago Center
Tue 07:29:25 PM 40.9758 -85.4681 213° Southwest 161 185 5,900  Level Chicago Center
Tue 07:30:28 PM 40.9378 -85.4931 206° Southwest 160 184 5,900  Level Chicago Center
Tue 07:31:32 PM 40.8950 -85.5306 214° Southwest 161 185 5,900 48 Level Chicago Center
Tue 07:32:32 PM 40.8606 -85.5489 202° Southwest 159 183 6,000 99 Climbing Chicago Center
Tue 07:33:33 PM 40.8183 -85.5847 213° Southwest 156 180 6,100 49 Climbing Chicago Center
Tue 07:34:34 PM 40.7781 -85.6156 210° Southwest 157 181 6,100  Level Chicago Center
Tue 07:35:34 PM 40.7397 -85.6414 207° Southwest 160 184 6,100 -48 Level Chicago Center
Tue 07:36:40 PM 40.6978 -85.6667 205° Southwest 162 186 6,000 -98 Descending Chicago Center
Tue 07:37:36 PM 40.6608 -85.6978 213° Southwest 162 186 5,900  Descending Chicago Center
Tue 07:39:14 PM 40.5953 -85.7408 207° Southwest 161 185 6,000  Climbing Indianapolis Center
Tue 07:39:46 PM 40.5794 -85.7511 206° Southwest 161 185 5,900  Descending Chicago Center
Tue 07:40:37 PM 40.5356 -85.7819 208° Southwest 167 192 6,000 107 Climbing Chicago Center
Tue 07:41:38 PM 40.4950 -85.8156 212° Southwest 168 193 6,100  Climbing Chicago Center
Tue 07:42:39 PM 40.4544 -85.8436 208° Southwest 166 191 6,000 -265 Descending Chicago Center
Tue 07:43:54 PM 40.4089 -85.8736 207° Southwest 165 190 5,500 -520 Descending Chicago Center
Tue 07:44:46 PM 40.3669 -85.9044 209° Southwest 176 203 4,900 -629 Descending Chicago Center
Tue 07:45:58 PM 40.3194 -85.9361 207° Southwest 180 207 4,200 -448 Descending Chicago Center
Tue 07:47:00 PM 40.2653 -85.9778 210° Southwest 186 214 3,900 -145 Descending Chicago Center
Tue 07:48:02 PM 40.2244 -86.0078 209° Southwest 178 205 3,900 -48 Level Chicago Center
Tue 07:49:04 PM 40.1850 -86.0397 212° Southwest 172 198 3,800 -339 Descending Chicago Center
Tue 07:50:06 PM 40.1444 -86.0800 217° Southwest 175 201 3,200 -435 Descending Chicago Center
Tue 07:51:08 PM 40.1022 -86.1206 216° Southwest 183 211 2,900 -242 Descending Chicago Center
Tue 07:52:10 PM 40.0492 -86.1575 208° Southwest 183 211 2,700 -290 Descending Chicago Center
Tue 07:53:12 PM 40.0033 -86.1867 206° Southwest 183 211 2,300 -145 Descending Chicago Center
Tue 07:54:14 PM 39.9619 -86.2136 207° Southwest 176 203 2,400  Climbing Chicago Center
Tue 07:55:16 PM 39.9264 -86.2369 207° Southwest 161 185 2,300 -435 Descending Chicago Center
Tue 07:56:18 PM 39.8964 -86.2533 203° Southwest 136 157 1,500 -387 Descending Chicago Center
Tue 07:57:20 PM 39.8656 -86.2711 204° Southwest 133 153 1,500  Level Chicago Center

Login

Don't have an account? Register now (free) for customized features, flight alerts, and more!